Time;durP1;ratioP1;P1;durP2;ratioP2;P2;SDS_P1;SDS_P2;PMS_P1;PMS_P2;Temp;Humidity;BMP_temperature;BMP_pressure;BME280_temperature;BME280_humidity;BME280_pressure;Samples;Min_cycle;Max_cycle;Signal;HPM_P1;HPM_P2
2023/07/16 00:00:44;;;;;;;;;;;;;;;18.38;100.00;100708.94;4998472;28;19944;-71
2023/07/16 00:03:10;;;;;;;;;;;;;;;18.37;100.00;100709.97;5001027;28;22152;-69
2023/07/16 00:05:38;;;;;;;;;;;;;;;18.26;100.00;100711.44;5017487;28;19963;-70
2023/07/16 00:08:03;;;;;;;;;;;;;;;18.18;100.00;100701.19;5003499;28;19925;-70
2023/07/16 00:10:29;;;;;;;;;;;;;;;18.14;100.00;100700.78;5001028;28;20760;-71
2023/07/16 00:12:54;;;;;;;;;;;;;;;18.14;100.00;100702.59;5001081;28;19914;-70
2023/07/16 00:15:19;;;;;;;;;;;;;;;18.14;100.00;100695.53;4999821;28;20026;-71
2023/07/16 00:17:45;;;;;;;;;;;;;;;18.18;100.00;100694.09;5004484;28;20288;-71
2023/07/16 00:20:10;;;;;;;;;;;;;;;18.16;100.00;100695.31;5004696;28;19921;-71
2023/07/16 00:22:38;;;;;;;;;;;;;;;18.14;100.00;100692.09;5004482;28;19929;-71
2023/07/16 00:25:05;;;;;;;;;;;;;;;18.14;100.00;100708.66;5003732;28;19937;-71
2023/07/16 00:27:30;;;;;;;;;;;;;;;18.18;100.00;100703.81;5000695;28;19913;-71
2023/07/16 00:29:57;;;;;;;;;;;;;;;18.15;100.00;100705.00;4999953;28;20013;-70
2023/07/16 00:32:23;;;;;;;;;;;;;;;18.14;100.00;100705.22;5016798;28;19914;-71
2023/07/16 00:34:49;;;;;;;;;;;;;;;18.12;100.00;100712.47;5002118;28;19921;-70
2023/07/16 00:37:14;;;;;;;;;;;;;;;18.11;100.00;100716.13;4999153;28;19925;-71
2023/07/16 00:39:40;;;;;;;;;;;;;;;18.07;100.00;100719.16;5002461;28;19921;-70
2023/07/16 00:42:05;;;;;;;;;;;;;;;18.06;100.00;100717.56;5001822;28;19968;-70
2023/07/16 00:44:40;;;;;;;;;;;;;;;18.07;100.00;100715.75;5002123;28;19924;-70
2023/07/16 00:47:11;;;;;;;;;;;;;;;18.04;100.00;100726.63;4999074;28;19921;-71
2023/07/16 00:49:38;;;;;;;;;;;;;;;18.04;100.00;100721.41;4999388;28;19932;-71
2023/07/16 00:52:04;;;;;;;;;;;;;;;18.03;100.00;100720.59;5002395;28;20491;-70
2023/07/16 00:54:31;;;;;;;;;;;;;;;18.03;100.00;100717.97;5004548;28;19924;-70
2023/07/16 00:56:56;;;;;;;;;;;;;;;18.02;100.00;100718.19;5005800;28;20002;-71
2023/07/16 00:59:21;;;;;;;;;;;;;;;18.05;100.00;100715.94;5002652;28;19917;-70
2023/07/16 01:01:47;;;;;;;;;;;;;;;18.00;100.00;100726.25;5006151;28;19913;-71
2023/07/16 01:04:13;;;;;;;;;;;;;;;17.97;100.00;100717.97;5002181;28;20019;-70
2023/07/16 01:06:40;;;;;;;;;;;;;;;17.94;100.00;100721.84;5005618;28;19921;-70
2023/07/16 01:09:19;;;;;;;;;;;;;;;17.94;100.00;100716.59;5001807;28;19917;-71
2023/07/16 01:11:45;;;;;;;;;;;;;;;17.90;100.00;100712.78;5020469;28;19921;-70
2023/07/16 01:14:16;;;;;;;;;;;;;;;17.89;100.00;100713.78;5005411;28;20430;-70
2023/07/16 01:16:43;;;;;;;;;;;;;;;17.91;100.00;100714.38;5004253;28;20670;-71
2023/07/16 01:19:09;;;;;;;;;;;;;;;17.92;100.00;100712.56;5002568;28;20003;-71
2023/07/16 01:21:44;;;;;;;;;;;;;;;17.93;100.00;100714.16;5003612;28;19983;-70
2023/07/16 01:24:19;;;;;;;;;;;;;;;17.92;100.00;100708.13;5002402;28;19929;-70
2023/07/16 01:27:03;;;;;;;;;;;;;;;17.88;100.00;100706.94;5018017;28;19917;-71
2023/07/16 01:29:30;;;;;;;;;;;;;;;17.81;100.00;100717.38;5002417;28;19925;-70
2023/07/16 01:31:57;;;;;;;;;;;;;;;17.79;100.00;100722.03;5005813;28;20608;-71
2023/07/16 01:34:24;;;;;;;;;;;;;;;17.76;100.00;100726.88;4998116;28;19960;-71
2023/07/16 01:36:50;;;;;;;;;;;;;;;17.75;100.00;100727.91;5005741;28;19948;-70
2023/07/16 01:39:16;;;;;;;;;;;;;;;17.75;100.00;100733.16;4999832;28;20414;-71
2023/07/16 01:41:41;;;;;;;;;;;;;;;17.72;100.00;100731.72;5006223;28;20012;-71
2023/07/16 01:44:06;;;;;;;;;;;;;;;17.70;100.00;100731.94;5005434;28;20020;-71
2023/07/16 01:46:32;;;;;;;;;;;;;;;17.62;100.00;100734.78;5005750;28;19920;-71
2023/07/16 01:48:57;;;;;;;;;;;;;;;17.60;100.00;100728.94;5008148;28;20345;-70
2023/07/16 01:51:22;;;;;;;;;;;;;;;17.57;100.00;100734.56;5004546;28;19918;-71
2023/07/16 01:53:48;;;;;;;;;;;;;;;17.59;100.00;100734.38;5007657;28;19925;-71
2023/07/16 01:56:13;;;;;;;;;;;;;;;17.57;100.00;100739.81;5005392;28;20336;-71
2023/07/16 01:58:39;;;;;;;;;;;;;;;17.51;100.00;100732.78;5019805;28;20473;-71
2023/07/16 02:01:04;;;;;;;;;;;;;;;17.48;100.00;100731.38;5005463;28;19914;-71
2023/07/16 02:03:29;;;;;;;;;;;;;;;17.47;100.00;100734.19;5005880;28;20149;-71
2023/07/16 02:05:55;;;;;;;;;;;;;;;17.45;100.00;100734.41;5006916;28;19913;-70
2023/07/16 02:08:20;;;;;;;;;;;;;;;17.45;100.00;100737.00;5004885;28;20015;-71
2023/07/16 02:10:49;;;;;;;;;;;;;;;17.40;100.00;100736.81;5007703;28;20012;-70
2023/07/16 02:13:15;;;;;;;;;;;;;;;17.32;100.00;100740.44;4999022;28;19914;-71
2023/07/16 02:15:40;;;;;;;;;;;;;;;17.34;100.00;100739.44;4995101;28;19974;-71
2023/07/16 02:18:06;;;;;;;;;;;;;;;17.29;100.00;100740.88;5009556;28;19921;-71
2023/07/16 02:20:34;;;;;;;;;;;;;;;17.31;100.00;100748.53;5005896;28;20917;-71
2023/07/16 02:22:59;;;;;;;;;;;;;;;17.37;100.00;100750.34;5010288;28;19917;-70
2023/07/16 02:25:26;;;;;;;;;;;;;;;17.29;100.00;100746.09;5004877;28;19917;-71
2023/07/16 02:27:51;;;;;;;;;;;;;;;17.28;100.00;100752.34;5009191;28;19928;-71
2023/07/16 02:30:17;;;;;;;;;;;;;;;17.23;100.00;100753.94;5000458;28;19940;-71
2023/07/16 02:32:43;;;;;;;;;;;;;;;17.28;100.00;100754.16;5021691;28;20000;-71
2023/07/16 02:35:09;;;;;;;;;;;;;;;17.21;100.00;100755.97;5022049;28;20004;-71
2023/07/16 02:37:34;;;;;;;;;;;;;;;17.15;100.00;100759.41;5005767;28;19913;-72
2023/07/16 02:39:59;;;;;;;;;;;;;;;17.07;100.00;100763.00;4991552;28;20300;-71
2023/07/16 02:42:25;;;;;;;;;;;;;;;17.10;100.00;100763.44;4991156;28;20450;-71
2023/07/16 02:44:50;;;;;;;;;;;;;;;17.16;100.00;100767.06;5004625;28;19925;-71
2023/07/16 02:47:17;;;;;;;;;;;;;;;17.05;100.00;100771.06;5022379;28;19921;-70
2023/07/16 02:49:43;;;;;;;;;;;;;;;16.96;100.00;100774.06;5023005;28;20387;-70
2023/07/16 02:52:09;;;;;;;;;;;;;;;16.97;100.00;100773.88;5005674;28;19917;-71
2023/07/16 02:54:38;;;;;;;;;;;;;;;16.95;100.00;100786.34;5004201;28;19917;-70
2023/07/16 02:57:05;;;;;;;;;;;;;;;17.00;100.00;100778.69;5021429;28;19925;-71
2023/07/16 02:59:31;;;;;;;;;;;;;;;17.04;100.00;100784.34;5003347;28;19917;-71
2023/07/16 03:01:56;;;;;;;;;;;;;;;17.01;100.00;100782.94;5007203;28;20016;-71
2023/07/16 03:04:21;;;;;;;;;;;;;;;16.89;100.00;100781.91;5005529;28;20422;-71
2023/07/16 03:06:47;;;;;;;;;;;;;;;16.96;99.92;100787.97;5007147;28;19924;-71
2023/07/16 03:09:12;;;;;;;;;;;;;;;16.99;98.32;100794.63;5006755;28;19945;-71
2023/07/16 03:11:38;;;;;;;;;;;;;;;16.89;99.18;100790.56;5003424;28;19914;-70
2023/07/16 03:14:09;;;;;;;;;;;;;;;16.80;98.18;100802.22;5005990;28;19966;-70
2023/07/16 03:16:34;;;;;;;;;;;;;;;16.74;98.52;100801.19;5010121;28;19933;-71
2023/07/16 03:18:59;;;;;;;;;;;;;;;16.74;97.87;100790.72;5005857;28;20040;-70
2023/07/16 03:21:25;;;;;;;;;;;;;;;16.76;96.64;100800.16;4989283;28;19921;-70
2023/07/16 03:23:50;;;;;;;;;;;;;;;16.70;97.20;100799.13;5005475;28;20840;-71
2023/07/16 03:26:16;;;;;;;;;;;;;;;16.65;97.11;100806.75;5002284;28;19921;-71
2023/07/16 03:28:42;;;;;;;;;;;;;;;16.68;96.77;100809.00;5001059;28;19968;-71
2023/07/16 03:31:09;;;;;;;;;;;;;;;16.68;96.14;100812.41;5005153;28;19936;-70
2023/07/16 03:33:39;;;;;;;;;;;;;;;16.64;96.64;100819.06;5005469;28;19920;-71
2023/07/16 03:36:06;;;;;;;;;;;;;;;16.62;96.23;100813.22;5004069;28;19916;-71
2023/07/16 03:38:32;;;;;;;;;;;;;;;16.64;95.64;100819.06;5004175;28;19922;-70
2023/07/16 03:40:57;;;;;;;;;;;;;;;16.61;95.60;100827.28;5004911;28;19917;-70
2023/07/16 03:43:23;;;;;;;;;;;;;;;16.69;95.24;100827.13;5004107;28;19921;-71
2023/07/16 03:45:51;;;;;;;;;;;;;;;16.61;95.54;100842.19;5004229;28;19917;-70
2023/07/16 03:48:16;;;;;;;;;;;;;;;16.57;94.71;100847.00;5004748;28;19928;-71
2023/07/16 03:50:42;;;;;;;;;;;;;;;16.46;93.98;100848.38;5003173;28;20366;-71
2023/07/16 03:53:07;;;;;;;;;;;;;;;16.45;93.62;100849.38;4991075;28;19935;-71
2023/07/16 03:55:33;;;;;;;;;;;;;;;16.47;94.04;100854.41;5010438;28;20173;-71
2023/07/16 03:57:59;;;;;;;;;;;;;;;16.45;93.56;100857.22;5005535;28;19960;-71
2023/07/16 04:00:25;;;;;;;;;;;;;;;16.46;93.84;100855.41;4988985;28;19945;-71
2023/07/16 04:02:51;;;;;;;;;;;;;;;16.51;94.30;100864.28;5021568;28;19925;-71
2023/07/16 04:05:17;;;;;;;;;;;;;;;16.49;92.79;100858.44;5001717;28;19918;-71
2023/07/16 04:07:43;;;;;;;;;;;;;;;16.52;93.04;100871.16;4990487;28;20312;-69
2023/07/16 04:10:08;;;;;;;;;;;;;;;16.51;91.24;100873.97;4988312;28;20384;-70
2023/07/16 04:12:33;;;;;;;;;;;;;;;16.50;92.24;100873.16;5004997;28;20443;-70
2023/07/16 04:15:00;;;;;;;;;;;;;;;16.51;92.18;100885.22;5006835;28;19964;-71
2023/07/16 04:17:25;;;;;;;;;;;;;;;16.44;90.99;100887.00;5019231;28;20380;-70
2023/07/16 04:19:52;;;;;;;;;;;;;;;16.49;89.13;100883.81;5007165;28;19918;-71
2023/07/16 04:22:17;;;;;;;;;;;;;;;16.60;89.52;100893.75;5003602;28;19920;-70
2023/07/16 04:24:43;;;;;;;;;;;;;;;16.51;88.96;100894.91;5005878;28;19917;-70
2023/07/16 04:27:08;;;;;;;;;;;;;;;16.58;89.23;100895.75;5005191;28;19921;-70
2023/07/16 04:29:33;;;;;;;;;;;;;;;16.66;87.67;100889.53;5004407;28;19921;-72
2023/07/16 04:31:59;;;;;;;;;;;;;;;16.63;88.50;100897.78;5006796;28;20336;-70
2023/07/16 04:34:24;;;;;;;;;;;;;;;16.55;88.89;100896.13;5004276;28;20379;-71
2023/07/16 04:36:49;;;;;;;;;;;;;;;16.53;88.68;100896.31;5005471;28;20000;-70
2023/07/16 04:39:15;;;;;;;;;;;;;;;16.55;89.53;100902.16;5004143;28;19917;-70
2023/07/16 04:41:41;;;;;;;;;;;;;;;16.52;89.08;100904.38;5005268;28;19952;-70
2023/07/16 04:44:06;;;;;;;;;;;;;;;16.53;89.63;100895.50;5003829;28;20024;-70
2023/07/16 04:46:32;;;;;;;;;;;;;;;16.60;90.23;100903.41;5004528;28;20036;-71
2023/07/16 04:48:57;;;;;;;;;;;;;;;16.57;90.15;100898.56;5003076;28;19971;-71
2023/07/16 04:51:22;;;;;;;;;;;;;;;16.70;89.78;100911.72;5005578;28;19914;-70
2023/07/16 04:53:48;;;;;;;;;;;;;;;16.69;89.25;100912.72;5003843;28;19922;-70
2023/07/16 04:56:14;;;;;;;;;;;;;;;16.69;90.18;100908.28;5005638;28;19925;-69
2023/07/16 04:58:40;;;;;;;;;;;;;;;16.74;90.95;100915.56;5004790;28;19985;-70
2023/07/16 05:01:26;;;;;;;;;;;;;;;16.78;88.83;100926.44;5006621;28;19917;-70
2023/07/16 05:03:52;;;;;;;;;;;;;;;16.82;89.72;100930.28;5001301;28;19930;-70
2023/07/16 05:06:19;;;;;;;;;;;;;;;16.89;88.48;100925.94;5006284;28;20372;-71
2023/07/16 05:08:44;;;;;;;;;;;;;;;16.96;88.93;100929.41;5004061;28;19957;-71
2023/07/16 05:11:11;;;;;;;;;;;;;;;16.92;89.28;100928.19;5004894;28;20396;-70
2023/07/16 05:13:37;;;;;;;;;;;;;;;16.92;89.04;100938.66;5017426;28;20442;-70
2023/07/16 05:16:02;;;;;;;;;;;;;;;16.93;88.59;100933.22;4998938;28;19914;-70
2023/07/16 05:18:27;;;;;;;;;;;;;;;17.04;86.24;100934.47;5006958;28;19992;-71
2023/07/16 05:20:53;;;;;;;;;;;;;;;17.19;86.53;100939.56;4999290;28;19916;-71
2023/07/16 05:23:18;;;;;;;;;;;;;;;17.21;86.02;100934.94;5005291;28;19924;-71
2023/07/16 05:25:48;;;;;;;;;;;;;;;17.24;84.53;100938.97;5002929;28;19925;-71
2023/07/16 05:28:13;;;;;;;;;;;;;;;17.41;85.47;100950.72;5002802;28;19921;-71
2023/07/16 05:30:39;;;;;;;;;;;;;;;17.41;84.64;100950.72;5001473;28;19972;-71
2023/07/16 05:33:05;;;;;;;;;;;;;;;17.43;82.96;100953.94;5004406;28;20388;-71
2023/07/16 05:35:30;;;;;;;;;;;;;;;17.51;81.68;100948.53;5001733;28;20367;-70
2023/07/16 05:37:56;;;;;;;;;;;;;;;17.65;80.96;100952.00;5005262;28;19917;-69
2023/07/16 05:40:21;;;;;;;;;;;;;;;17.67;81.82;100949.19;4984450;28;19921;-70
2023/07/16 05:42:46;;;;;;;;;;;;;;;17.68;81.11;100951.59;5020874;28;20118;-70
2023/07/16 05:45:12;;;;;;;;;;;;;;;17.80;81.26;100961.47;5003195;28;20383;-71
2023/07/16 05:47:37;;;;;;;;;;;;;;;17.89;78.71;100955.06;5005242;28;19926;-71
2023/07/16 05:50:02;;;;;;;;;;;;;;;17.88;78.98;100961.34;5002294;28;20012;-70
2023/07/16 05:52:29;;;;;;;;;;;;;;;17.98;76.28;100953.88;5003086;28;19913;-70
2023/07/16 05:54:54;;;;;;;;;;;;;;;18.05;76.25;100959.13;5004241;28;20011;-71
2023/07/16 05:57:20;;;;;;;;;;;;;;;18.23;75.79;100959.34;5003338;28;20355;-70
2023/07/16 05:59:45;;;;;;;;;;;;;;;18.39;76.13;100970.44;5000503;28;20407;-70
2023/07/16 06:02:10;;;;;;;;;;;;;;;18.44;74.86;100962.72;5001344;28;19914;-71
2023/07/16 06:04:36;;;;;;;;;;;;;;;18.59;74.68;100970.38;5002332;28;19983;-70
2023/07/16 06:07:02;;;;;;;;;;;;;;;18.78;74.03;100971.34;5002338;28;19913;-70
2023/07/16 06:09:27;;;;;;;;;;;;;;;19.02;73.81;100975.16;5002960;28;19917;-70
2023/07/16 06:11:52;;;;;;;;;;;;;;;19.22;72.59;100972.47;5003757;28;20040;-70
2023/07/16 06:14:18;;;;;;;;;;;;;;;19.24;70.60;100973.06;5000717;28;20001;-70
2023/07/16 06:16:43;;;;;;;;;;;;;;;19.39;71.49;100980.69;5005044;28;19948;-70
2023/07/16 06:19:08;;;;;;;;;;;;;;;19.48;70.70;100979.44;5004836;28;19955;-71
2023/07/16 06:21:34;;;;;;;;;;;;;;;19.58;69.40;100981.59;5003612;28;20013;-70
2023/07/16 06:23:59;;;;;;;;;;;;;;;19.62;68.27;100993.28;5000621;28;19928;-71
2023/07/16 06:26:24;;;;;;;;;;;;;;;19.59;67.74;100996.34;5007280;28;19921;-70
2023/07/16 06:28:50;;;;;;;;;;;;;;;19.69;67.50;100993.28;5009915;28;19925;-70
2023/07/16 06:31:18;;;;;;;;;;;;;;;19.58;65.56;101000.78;5006792;28;19921;-70
2023/07/16 06:33:46;;;;;;;;;;;;;;;19.59;65.86;101010.31;5006031;28;20014;-70
2023/07/16 06:36:12;;;;;;;;;;;;;;;19.55;65.79;101005.66;5008998;28;19917;-69
2023/07/16 06:38:37;;;;;;;;;;;;;;;19.97;65.54;101004.25;5005350;28;20265;-70
2023/07/16 06:41:02;;;;;;;;;;;;;;;20.29;65.29;101009.47;5007541;28;19917;-70
2023/07/16 06:43:27;;;;;;;;;;;;;;;20.42;64.36;101003.28;5007835;28;19918;-70
2023/07/16 06:45:53;;;;;;;;;;;;;;;20.53;64.36;101002.59;5020585;28;19983;-70
2023/07/16 06:48:18;;;;;;;;;;;;;;;20.67;63.29;101003.28;5008157;28;20568;-70
2023/07/16 06:50:44;;;;;;;;;;;;;;;21.11;62.66;101000.56;5006090;28;20036;-70
2023/07/16 06:53:09;;;;;;;;;;;;;;;21.24;62.45;101002.25;5020912;28;20512;-70
2023/07/16 06:55:34;;;;;;;;;;;;;;;21.33;60.08;100998.28;5006585;28;19918;-71
2023/07/16 06:58:00;;;;;;;;;;;;;;;21.83;58.69;100994.56;5007148;28;19918;-70
2023/07/16 07:00:25;;;;;;;;;;;;;;;21.62;58.27;101009.88;5004459;28;19925;-70
2023/07/16 07:02:51;;;;;;;;;;;;;;;21.80;56.69;101000.31;5007513;28;20048;-70
2023/07/16 07:05:16;;;;;;;;;;;;;;;21.38;57.77;101007.13;5007462;28;20322;-70
2023/07/16 07:07:43;;;;;;;;;;;;;;;21.54;58.03;101003.09;5002459;28;19920;-69
2023/07/16 07:10:08;;;;;;;;;;;;;;;22.08;56.97;101007.59;4996092;28;19924;-69
2023/07/16 07:12:37;;;;;;;;;;;;;;;22.38;55.08;101004.09;5003433;28;20516;-69
2023/07/16 07:15:03;;;;;;;;;;;;;;;22.43;56.01;101005.00;5004087;28;20011;-69
2023/07/16 07:17:28;;;;;;;;;;;;;;;22.32;53.60;101008.44;5008782;28;20392;-70
2023/07/16 07:19:53;;;;;;;;;;;;;;;22.47;53.55;101008.00;5004169;28;19971;-70
2023/07/16 07:22:19;;;;;;;;;;;;;;;22.87;54.11;101004.66;5005461;28;20004;-69
2023/07/16 07:24:44;;;;;;;;;;;;;;;22.54;54.11;101006.84;5005093;28;19921;-69
2023/07/16 07:27:09;;;;;;;;;;;;;;;22.97;52.95;101010.13;5007168;28;20268;-69
2023/07/16 07:29:35;;;;;;;;;;;;;;;22.92;52.43;101008.19;5005013;28;20450;-70
2023/07/16 07:32:00;;;;;;;;;;;;;;;23.07;50.95;101012.19;5003385;28;19929;-70
2023/07/16 07:34:25;;;;;;;;;;;;;;;23.28;50.75;101010.75;5002421;28;19925;-70
2023/07/16 07:36:50;;;;;;;;;;;;;;;23.76;50.53;101009.50;5002160;28;19952;-69
2023/07/16 07:39:16;;;;;;;;;;;;;;;23.35;50.08;100997.41;5005333;28;19917;-69
2023/07/16 07:41:42;;;;;;;;;;;;;;;23.32;50.17;101001.34;5003818;28;19924;-70
2023/07/16 07:44:07;;;;;;;;;;;;;;;23.00;50.22;101020.25;5004567;28;19921;-69
2023/07/16 07:46:32;;;;;;;;;;;;;;;23.04;51.71;101010.03;5008109;28;19925;-69
2023/07/16 07:48:57;;;;;;;;;;;;;;;22.98;51.13;100995.88;5002831;28;20384;-69
2023/07/16 07:51:23;;;;;;;;;;;;;;;23.18;51.48;100998.13;5003003;28;19948;-69
2023/07/16 07:53:49;;;;;;;;;;;;;;;23.61;50.19;101010.03;5001004;28;19941;-69
2023/07/16 07:56:14;;;;;;;;;;;;;;;24.34;48.59;101004.09;5005498;28;19972;-69
2023/07/16 07:58:40;;;;;;;;;;;;;;;23.84;49.29;101009.13;5007079;28;19952;-69
2023/07/16 08:01:05;;;;;;;;;;;;;;;23.59;49.65;101009.47;5006010;28;19905;-69
2023/07/16 08:03:31;;;;;;;;;;;;;;;24.01;49.51;101003.84;5021339;28;19926;-69
2023/07/16 08:05:56;;;;;;;;;;;;;;;24.24;49.14;101008.22;5003733;28;20036;-69
2023/07/16 08:08:21;;;;;;;;;;;;;;;23.85;50.31;101016.06;5003033;28;20359;-70
2023/07/16 08:10:47;;;;;;;;;;;;;;;23.46;50.24;101015.88;5001266;28;20447;-71
2023/07/16 08:13:12;;;;;;;;;;;;;;;23.60;50.71;101024.34;5005832;28;19921;-69
2023/07/16 08:15:38;;;;;;;;;;;;;;;24.02;49.71;101017.91;5005941;28;19917;-69
2023/07/16 08:18:03;;;;;;;;;;;;;;;24.34;48.84;101023.44;5005573;28;19922;-70
2023/07/16 08:20:28;;;;;;;;;;;;;;;24.29;46.63;101023.34;5014442;28;19928;-70
2023/07/16 08:22:54;;;;;;;;;;;;;;;23.67;49.26;101024.97;5003654;28;19932;-69
2023/07/16 08:25:19;;;;;;;;;;;;;;;23.41;49.33;101033.47;5003759;28;20000;-69
2023/07/16 08:27:44;;;;;;;;;;;;;;;23.55;51.20;101028.72;5001270;28;20000;-71
2023/07/16 08:30:10;;;;;;;;;;;;;;;24.21;49.72;101029.06;5003669;28;19925;-70
2023/07/16 08:32:35;;;;;;;;;;;;;;;24.83;47.24;101014.88;5018943;28;20327;-70
2023/07/16 08:35:00;;;;;;;;;;;;;;;24.32;48.06;101024.72;5000244;28;19918;-70
2023/07/16 08:37:26;;;;;;;;;;;;;;;24.29;46.05;101023.34;5019122;28;19988;-69
2023/07/16 08:39:52;;;;;;;;;;;;;;;24.61;46.61;101028.88;5003629;28;20030;-69
2023/07/16 08:42:18;;;;;;;;;;;;;;;24.74;46.55;101032.25;5003179;28;19920;-71
2023/07/16 08:44:43;;;;;;;;;;;;;;;25.00;46.53;101028.88;4997503;28;19926;-69
2023/07/16 08:47:09;;;;;;;;;;;;;;;25.23;44.58;101030.47;4997989;28;19919;-69
2023/07/16 08:49:34;;;;;;;;;;;;;;;24.48;45.89;101037.16;5016444;28;20376;-69
2023/07/16 08:52:00;;;;;;;;;;;;;;;24.90;47.79;101027.94;5003337;28;19918;-70
2023/07/16 08:54:26;;;;;;;;;;;;;;;25.37;46.91;101040.72;5018716;28;19928;-69
2023/07/16 08:56:51;;;;;;;;;;;;;;;24.60;46.07;101039.72;5017988;28;19913;-68
2023/07/16 08:59:17;;;;;;;;;;;;;;;24.28;48.32;101049.06;5002412;28;20387;-68
2023/07/16 09:01:42;;;;;;;;;;;;;;;23.87;47.24;101047.59;5004289;28;19968;-69
2023/07/16 09:04:08;;;;;;;;;;;;;;;23.67;48.44;101051.44;5001445;28;19958;-68
2023/07/16 09:06:33;;;;;;;;;;;;;;;23.34;49.97;101052.16;5004363;28;20364;-69
2023/07/16 09:08:58;;;;;;;;;;;;;;;23.53;49.14;101052.78;5000664;28;19921;-70
2023/07/16 09:11:24;;;;;;;;;;;;;;;22.86;50.48;101053.25;5002784;28;19932;-69
2023/07/16 09:13:49;;;;;;;;;;;;;;;23.07;50.68;101052.66;4986206;28;19996;-70
2023/07/16 09:16:17;;;;;;;;;;;;;;;23.81;49.03;101052.00;5004771;28;19917;-68
2023/07/16 09:18:43;;;;;;;;;;;;;;;23.87;49.65;101047.59;4998874;28;20009;-68
2023/07/16 09:21:08;;;;;;;;;;;;;;;24.32;47.10;101051.22;4999957;28;20575;-68
2023/07/16 09:23:34;;;;;;;;;;;;;;;24.00;47.84;101055.22;5002427;28;20016;-69
2023/07/16 09:25:59;;;;;;;;;;;;;;;23.92;48.85;101058.25;4993445;28;20517;-68
2023/07/16 09:28:25;;;;;;;;;;;;;;;24.53;48.36;101055.81;5000303;28;19914;-69
2023/07/16 09:30:51;;;;;;;;;;;;;;;24.54;47.67;101049.44;5015319;28;20046;-68
2023/07/16 09:33:17;;;;;;;;;;;;;;;24.40;46.70;101056.91;5002415;28;19921;-69
2023/07/16 09:35:43;;;;;;;;;;;;;;;24.73;45.84;101046.53;5000890;28;19960;-69
2023/07/16 09:38:12;;;;;;;;;;;;;;;25.20;46.86;101046.06;5000632;28;19961;-69
2023/07/16 09:40:38;;;;;;;;;;;;;;;24.75;47.63;101057.69;5001985;28;19962;-69
2023/07/16 09:43:04;;;;;;;;;;;;;;;24.44;48.12;101065.97;5000383;28;19925;-69
2023/07/16 09:45:29;;;;;;;;;;;;;;;24.41;47.37;101058.53;5014815;28;20393;-69
2023/07/16 09:47:55;;;;;;;;;;;;;;;24.51;47.86;101057.88;4995102;28;20004;-68
2023/07/16 09:50:23;;;;;;;;;;;;;;;24.57;46.73;101050.84;4998848;28;20431;-69
2023/07/16 09:52:48;;;;;;;;;;;;;;;24.38;47.59;101059.00;5001329;28;19932;-68
2023/07/16 09:55:14;;;;;;;;;;;;;;;24.62;47.69;101057.00;5002402;28;19926;-70
2023/07/16 09:57:41;;;;;;;;;;;;;;;24.06;49.29;101061.41;5003086;28;19913;-69
2023/07/16 10:00:15;;;;;;;;;;;;;;;24.32;47.78;101059.16;4998706;28;19929;-69
2023/07/16 10:02:42;;;;;;;;;;;;;;;24.57;46.81;101056.13;5021700;28;19921;-68
2023/07/16 10:05:15;;;;;;;;;;;;;;;24.34;47.04;101059.75;5020558;28;20568;-68
2023/07/16 10:07:41;;;;;;;;;;;;;;;24.06;47.68;101056.91;5006359;28;19932;-68
2023/07/16 10:10:11;;;;;;;;;;;;;;;24.00;47.81;101065.03;5007638;28;19975;-68
2023/07/16 10:12:37;;;;;;;;;;;;;;;23.79;48.21;101069.97;5008105;28;19914;-68
2023/07/16 10:15:03;;;;;;;;;;;;;;;23.62;47.25;101084.94;5007170;28;19921;-70
2023/07/16 10:17:30;;;;;;;;;;;;;;;23.42;48.67;101077.44;5009341;28;19920;-69
2023/07/16 10:19:59;;;;;;;;;;;;;;;23.46;49.46;101079.38;5007662;28;19921;-69
2023/07/16 10:22:38;;;;;;;;;;;;;;;23.41;49.31;101079.25;5008804;28;19917;-68
2023/07/16 10:25:26;;;;;;;;;;;;;;;23.19;48.68;101070.34;5004314;28;19945;-68
2023/07/16 10:27:52;;;;;;;;;;;;;;;23.32;49.49;101080.69;4998814;28;20591;-68
2023/07/16 10:30:19;;;;;;;;;;;;;;;23.31;49.66;101085.16;5022929;28;19924;-68
2023/07/16 10:32:44;;;;;;;;;;;;;;;23.30;48.88;101064.22;5006673;28;20582;-72
2023/07/16 10:35:10;;;;;;;;;;;;;;;23.03;49.69;101077.97;5003843;28;19917;-69
2023/07/16 10:37:36;;;;;;;;;;;;;;;22.92;50.21;101082.22;4993917;28;19921;-69
2023/07/16 10:40:05;;;;;;;;;;;;;;;23.55;49.78;101095.69;5000788;28;19925;-68
2023/07/16 10:42:30;;;;;;;;;;;;;;;23.60;48.66;101087.84;5001273;28;19917;-69
2023/07/16 10:44:59;;;;;;;;;;;;;;;23.85;48.72;101092.84;5019503;28;20042;-68
2023/07/16 10:47:32;;;;;;;;;;;;;;;24.14;47.55;101087.50;4992297;28;20396;-70
2023/07/16 10:49:57;;;;;;;;;;;;;;;23.67;47.40;101085.03;4986554;28;19928;-70
2023/07/16 10:52:23;;;;;;;;;;;;;;;23.81;48.65;101091.72;5003958;28;19921;-69
2023/07/16 10:54:54;;;;;;;;;;;;;;;24.08;47.90;101099.06;5005190;28;19990;-69
2023/07/16 10:57:20;;;;;;;;;;;;;;;23.82;47.29;101095.94;5004232;28;20004;-68
2023/07/16 10:59:45;;;;;;;;;;;;;;;23.68;46.63;101095.41;5017580;28;20368;-70
2023/07/16 11:02:15;;;;;;;;;;;;;;;23.92;47.88;101099.81;5002510;28;19917;-69
2023/07/16 11:04:40;;;;;;;;;;;;;;;23.74;47.19;101095.50;5018236;28;20347;-69
2023/07/16 11:07:11;;;;;;;;;;;;;;;23.43;47.54;101098.38;5003986;28;20000;-69
2023/07/16 11:09:43;;;;;;;;;;;;;;;23.32;48.86;101092.06;4994734;28;19923;-68
2023/07/16 11:12:13;;;;;;;;;;;;;;;23.52;48.85;101104.09;5000990;28;19913;-69
2023/07/16 11:14:42;;;;;;;;;;;;;;;23.56;49.16;101099.91;5001264;28;20284;-70
2023/07/16 11:17:10;;;;;;;;;;;;;;;23.46;48.38;101097.09;5005515;28;19920;-68
2023/07/16 11:19:36;;;;;;;;;;;;;;;23.58;48.37;101097.84;5016325;28;19925;-69
2023/07/16 11:22:03;;;;;;;;;;;;;;;23.63;48.84;101099.78;5001616;28;19913;-69
2023/07/16 11:24:28;;;;;;;;;;;;;;;23.76;48.57;101094.22;5002995;28;20201;-69
2023/07/16 11:26:57;;;;;;;;;;;;;;;23.76;47.85;101109.31;5002721;28;19921;-69
2023/07/16 11:29:23;;;;;;;;;;;;;;;23.43;47.95;101103.66;5002898;28;20016;-68
2023/07/16 11:31:49;;;;;;;;;;;;;;;23.21;48.60;101103.47;5002180;28;20008;-68
2023/07/16 11:34:14;;;;;;;;;;;;;;;23.17;49.18;101114.72;5002333;28;19956;-68
2023/07/16 11:36:40;;;;;;;;;;;;;;;23.10;49.44;101118.31;5002800;28;19960;-68
2023/07/16 11:39:05;;;;;;;;;;;;;;;23.06;48.53;101121.66;5000620;28;20028;-68
2023/07/16 11:41:31;;;;;;;;;;;;;;;23.06;48.38;101113.72;5001211;28;20296;-70
2023/07/16 11:43:59;;;;;;;;;;;;;;;23.12;49.41;101121.53;5001796;28;19922;-69
2023/07/16 11:46:25;;;;;;;;;;;;;;;23.08;50.26;101124.88;5020190;28;19964;-69
2023/07/16 11:48:50;;;;;;;;;;;;;;;23.16;49.41;101126.38;5000399;28;20015;-68
2023/07/16 11:51:15;;;;;;;;;;;;;;;23.25;49.98;101115.19;5003996;28;19971;-69
2023/07/16 11:53:41;;;;;;;;;;;;;;;23.25;49.17;101117.84;5003408;28;19918;-68
2023/07/16 11:56:06;;;;;;;;;;;;;;;23.36;48.80;101121.50;5003947;28;20379;-69
2023/07/16 11:58:31;;;;;;;;;;;;;;;23.02;47.67;101131.03;5006595;28;19918;-69
2023/07/16 12:00:57;;;;;;;;;;;;;;;22.87;49.33;101132.31;5004709;28;19917;-68
2023/07/16 12:03:22;;;;;;;;;;;;;;;22.72;49.66;101126.69;5015495;28;20434;-70
2023/07/16 12:05:47;;;;;;;;;;;;;;;22.78;50.27;101128.41;4999493;28;20204;-68
2023/07/16 12:08:14;;;;;;;;;;;;;;;22.92;50.04;101126.34;5000916;28;19913;-68
2023/07/16 12:10:40;;;;;;;;;;;;;;;22.98;49.01;101128.06;5001894;28;20024;-68
2023/07/16 12:13:05;;;;;;;;;;;;;;;23.12;50.43;101126.03;5001543;28;20040;-68
2023/07/16 12:15:30;;;;;;;;;;;;;;;23.32;50.17;101128.31;5000671;28;19929;-67
2023/07/16 12:17:56;;;;;;;;;;;;;;;23.21;48.97;101132.56;5007590;28;19976;-69
2023/07/16 12:20:21;;;;;;;;;;;;;;;23.24;50.27;101132.09;5004332;28;20357;-69
2023/07/16 12:22:46;;;;;;;;;;;;;;;23.19;48.53;101136.47;5001414;28;19918;-70
2023/07/16 12:25:12;;;;;;;;;;;;;;;23.52;50.38;101119.97;4999347;28;19925;-69
2023/07/16 12:27:37;;;;;;;;;;;;;;;23.78;49.78;101133.69;5017063;28;19921;-68